Time;durP1;ratioP1;P1;durP2;ratioP2;P2;SDS_P1;SDS_P2;PMS_P1;PMS_P2;Temp;Humidity;BMP_temperature;BMP_pressure;BME280_temperature;BME280_humidity;BME280_pressure;Samples;Min_cycle;Max_cycle;Signal;HPM_P1;HPM_P2
2023/04/25 00:00:52;;;;;;;6.68;2.70;;;6.50;99.90;;;;;;2091630;28;20314;-66
2023/04/25 00:01:53;;;;;;;4.05;2.85;;;6.50;99.90;;;;;;2091674;28;20789;-66
2023/04/25 00:02:55;;;;;;;4.83;2.80;;;6.40;99.90;;;;;;2088147;28;20228;-66
2023/04/25 00:03:57;;;;;;;8.07;3.38;;;6.40;99.90;;;;;;2091781;28;20222;-66
2023/04/25 00:04:58;;;;;;;4.78;3.10;;;6.40;99.90;;;;;;2092276;28;20591;-66
2023/04/25 00:06:01;;;;;;;4.85;2.97;;;6.50;99.90;;;;;;2092114;28;20273;-66
2023/04/25 00:07:03;;;;;;;6.93;3.05;;;6.50;99.90;;;;;;2067154;28;20223;-67
2023/04/25 00:08:06;;;;;;;4.75;2.63;;;6.50;99.90;;;;;;2074806;28;20717;-66
2023/04/25 00:09:08;;;;;;;4.13;3.17;;;6.40;99.90;;;;;;2082953;28;20251;-66
2023/04/25 00:10:11;;;;;;;6.82;3.53;;;6.30;99.90;;;;;;2083030;28;20185;-66
2023/04/25 00:11:12;;;;;;;5.90;3.17;;;6.20;99.90;;;;;;2076048;28;20192;-66
2023/04/25 00:12:13;;;;;;;3.97;2.90;;;6.30;99.90;;;;;;2091663;28;20199;-66
2023/04/25 00:13:17;;;;;;;5.47;2.77;;;6.20;99.90;;;;;;2088675;28;20303;-66
2023/04/25 00:14:18;;;;;;;5.20;2.80;;;6.10;99.90;;;;;;2081215;28;20193;-66
2023/04/25 00:15:20;;;;;;;4.65;3.08;;;6.20;99.90;;;;;;2083361;28;20563;-66
2023/04/25 00:16:23;;;;;;;5.13;2.95;;;6.20;99.90;;;;;;2082736;28;20204;-66
2023/04/25 00:17:27;;;;;;;5.00;3.53;;;6.30;99.90;;;;;;2074399;28;20236;-66
2023/04/25 00:18:32;;;;;;;4.18;2.80;;;6.30;99.90;;;;;;2082588;28;20237;-66
2023/04/25 00:19:34;;;;;;;7.70;2.85;;;6.40;99.90;;;;;;2083026;28;20243;-66
2023/04/25 00:20:36;;;;;;;4.07;2.67;;;6.40;99.90;;;;;;2074820;28;20315;-71
2023/04/25 00:21:40;;;;;;;3.85;2.80;;;6.40;99.90;;;;;;2083348;28;20605;-66
2023/04/25 00:22:42;;;;;;;5.68;2.75;;;6.40;99.90;;;;;;2091623;28;20238;-66
2023/04/25 00:23:42;;;;;;;5.18;2.53;;;6.40;99.90;;;;;;2091568;28;20232;-68
2023/04/25 00:24:44;;;;;;;4.07;2.43;;;6.40;99.90;;;;;;2088386;28;20252;-66
2023/04/25 00:25:47;;;;;;;4.50;2.85;;;6.40;99.90;;;;;;2082733;28;20258;-66
2023/04/25 00:26:49;;;;;;;5.90;2.75;;;6.30;99.90;;;;;;2066856;28;20747;-66
2023/04/25 00:27:50;;;;;;;8.07;2.80;;;6.30;99.90;;;;;;2074963;28;20223;-66
2023/04/25 00:28:52;;;;;;;5.23;2.63;;;6.30;99.90;;;;;;2080606;28;20590;-66
2023/04/25 00:29:53;;;;;;;5.20;2.58;;;6.30;99.90;;;;;;2079275;28;20695;-67
2023/04/25 00:30:53;;;;;;;4.30;2.63;;;6.30;99.90;;;;;;2087217;28;20322;-66
2023/04/25 00:31:54;;;;;;;6.67;2.63;;;6.30;99.90;;;;;;2078952;28;20255;-66
2023/04/25 00:32:55;;;;;;;4.83;2.60;;;6.20;99.90;;;;;;2074977;28;20745;-66
2023/04/25 00:33:56;;;;;;;4.27;2.33;;;6.30;99.90;;;;;;2095793;28;20597;-65
2023/04/25 00:34:57;;;;;;;6.40;2.80;;;6.30;99.90;;;;;;2087402;28;20310;-67
2023/04/25 00:35:59;;;;;;;3.22;2.30;;;6.30;99.90;;;;;;2087389;28;20223;-66
2023/04/25 00:37:01;;;;;;;4.45;2.47;;;6.40;99.90;;;;;;2091134;28;20232;-66
2023/04/25 00:38:02;;;;;;;3.80;2.60;;;6.40;99.90;;;;;;2085130;28;20227;-66
2023/04/25 00:39:04;;;;;;;6.73;2.73;;;6.50;99.90;;;;;;2087468;28;20354;-65
2023/04/25 00:40:08;;;;;;;4.45;2.85;;;6.60;99.90;;;;;;2091785;28;20345;-67
2023/04/25 00:41:12;;;;;;;6.93;3.00;;;6.60;99.90;;;;;;2083107;28;20193;-65
2023/04/25 00:42:13;;;;;;;5.03;2.90;;;6.50;99.90;;;;;;2083705;28;20190;-65
2023/04/25 00:43:14;;;;;;;5.82;2.70;;;6.50;99.90;;;;;;2079172;28;20203;-65
2023/04/25 00:44:16;;;;;;;5.27;3.10;;;6.50;99.90;;;;;;2082938;28;20655;-66
2023/04/25 00:45:17;;;;;;;4.05;2.20;;;6.60;99.90;;;;;;2082858;28;20184;-66
2023/04/25 00:46:18;;;;;;;3.90;2.70;;;6.50;99.90;;;;;;2082965;28;20193;-65
2023/04/25 00:47:19;;;;;;;4.67;2.93;;;6.40;99.90;;;;;;2082263;28;20204;-66
2023/04/25 00:48:23;;;;;;;4.13;2.67;;;6.30;99.90;;;;;;2074010;28;20231;-65
2023/04/25 00:49:24;;;;;;;10.18;3.00;;;6.20;99.90;;;;;;2079383;28;20766;-66
2023/04/25 00:50:25;;;;;;;7.67;2.80;;;6.20;99.90;;;;;;2082827;28;20236;-67
2023/04/25 00:51:27;;;;;;;4.97;2.50;;;6.10;99.90;;;;;;2075075;28;20308;-65
2023/04/25 00:52:27;;;;;;;3.88;2.60;;;6.10;99.90;;;;;;2082986;28;20235;-66
2023/04/25 00:53:30;;;;;;;7.93;2.53;;;6.00;99.90;;;;;;2082588;28;20242;-66
2023/04/25 00:54:30;;;;;;;3.22;2.60;;;6.00;99.90;;;;;;2073381;28;20304;-65
2023/04/25 00:55:32;;;;;;;5.10;2.80;;;6.00;99.90;;;;;;2082768;28;20228;-66
2023/04/25 00:56:32;;;;;;;4.78;3.30;;;6.00;99.90;;;;;;2083284;28;20707;-66
2023/04/25 00:57:34;;;;;;;4.10;3.03;;;6.00;99.90;;;;;;2073787;28;20337;-66
2023/04/25 00:58:35;;;;;;;7.35;3.70;;;5.90;99.90;;;;;;2083233;28;20638;-65
2023/04/25 00:59:37;;;;;;;5.78;3.35;;;5.80;99.90;;;;;;2083068;28;20315;-65
2023/04/25 01:00:41;;;;;;;5.22;3.15;;;5.80;99.90;;;;;;2074940;28;20228;-66
2023/04/25 01:01:43;;;;;;;7.13;3.72;;;5.70;99.90;;;;;;2083476;28;20295;-65
2023/04/25 01:02:45;;;;;;;8.90;4.10;;;5.80;99.90;;;;;;2090001;28;20231;-66
2023/04/25 01:03:46;;;;;;;10.88;3.95;;;5.70;99.90;;;;;;2084828;28;20228;-65
2023/04/25 01:04:49;;;;;;;4.82;3.72;;;5.50;99.90;;;;;;2074626;28;20236;-67
2023/04/25 01:05:53;;;;;;;5.82;3.92;;;5.50;99.90;;;;;;2074812;28;20236;-66
2023/04/25 01:06:55;;;;;;;10.35;4.13;;;5.50;99.90;;;;;;2084839;28;20224;-70
2023/04/25 01:07:56;;;;;;;9.15;3.88;;;5.40;99.90;;;;;;2084410;28;20225;-66
2023/04/25 01:08:58;;;;;;;7.07;4.10;;;5.40;99.90;;;;;;2084944;28;20229;-66
2023/04/25 01:09:59;;;;;;;6.95;4.13;;;5.50;99.90;;;;;;2093519;28;20781;-66
2023/04/25 01:11:00;;;;;;;5.93;4.00;;;5.50;99.90;;;;;;2092625;28;20235;-68
2023/04/25 01:12:02;;;;;;;9.43;3.88;;;5.40;99.90;;;;;;2092093;28;20235;-66
2023/04/25 01:13:03;;;;;;;11.48;4.00;;;5.40;99.90;;;;;;2084468;28;20227;-66
2023/04/25 01:14:04;;;;;;;5.05;3.50;;;5.50;99.90;;;;;;2075933;28;20181;-65
2023/04/25 01:15:06;;;;;;;11.73;4.10;;;5.60;99.90;;;;;;2084032;28;20215;-66
2023/04/25 01:16:07;;;;;;;9.70;4.75;;;5.60;99.90;;;;;;2084195;28;20223;-66
2023/04/25 01:17:11;;;;;;;10.27;4.40;;;5.70;99.90;;;;;;2074184;28;20202;-65
2023/04/25 01:18:12;;;;;;;7.90;3.92;;;5.70;99.90;;;;;;2085145;28;20187;-65
2023/04/25 01:19:17;;;;;;;8.50;4.57;;;5.70;99.90;;;;;;2093291;28;20191;-67
2023/04/25 01:20:22;;;;;;;5.32;3.88;;;5.80;99.90;;;;;;2081297;28;20286;-66
2023/04/25 01:21:26;;;;;;;6.70;3.97;;;5.70;99.90;;;;;;2084399;28;20231;-65
2023/04/25 01:22:26;;;;;;;7.03;4.15;;;5.70;99.90;;;;;;2084178;28;20221;-66
2023/04/25 01:23:29;;;;;;;6.17;3.60;;;5.70;99.90;;;;;;2083525;28;20708;-66
2023/04/25 01:24:32;;;;;;;6.68;4.40;;;5.70;99.90;;;;;;2070586;28;20569;-65
2023/04/25 01:25:34;;;;;;;5.75;3.67;;;5.60;99.90;;;;;;2068242;28;20313;-66
2023/04/25 01:26:35;;;;;;;6.53;4.18;;;5.60;99.90;;;;;;2083841;28;20239;-66
2023/04/25 01:27:37;;;;;;;5.22;3.60;;;5.60;99.90;;;;;;2082896;28;20238;-66
2023/04/25 01:28:42;;;;;;;7.53;4.55;;;5.60;99.90;;;;;;2084153;28;20229;-66
2023/04/25 01:29:43;;;;;;;5.75;3.42;;;5.50;99.90;;;;;;2080666;28;20220;-66
2023/04/25 01:30:44;;;;;;;8.33;3.13;;;5.40;99.90;;;;;;2084187;28;20377;-66
2023/04/25 01:31:45;;;;;;;5.32;3.28;;;5.50;99.90;;;;;;2083830;28;20224;-65
2023/04/25 01:32:48;;;;;;;6.63;3.50;;;5.50;99.90;;;;;;2090047;28;20229;-69
2023/04/25 01:33:49;;;;;;;6.97;3.70;;;5.60;99.90;;;;;;2083713;28;20307;-66
2023/04/25 01:34:50;;;;;;;8.07;4.07;;;5.50;99.90;;;;;;2083847;28;20225;-66
2023/04/25 01:35:51;;;;;;;7.13;3.40;;;5.50;99.90;;;;;;2091888;28;20780;-66
2023/04/25 01:36:53;;;;;;;6.97;3.40;;;5.50;99.90;;;;;;2084723;28;20223;-65
2023/04/25 01:37:55;;;;;;;6.28;3.38;;;5.50;99.90;;;;;;2084476;28;20343;-66
2023/04/25 01:38:56;;;;;;;7.72;3.55;;;5.40;99.90;;;;;;2091642;28;20227;-65
2023/04/25 01:39:57;;;;;;;5.72;4.38;;;5.30;99.90;;;;;;2092838;28;20226;-66
2023/04/25 01:40:59;;;;;;;7.70;4.20;;;5.40;99.90;;;;;;2076139;28;20767;-65
2023/04/25 01:42:01;;;;;;;7.53;4.10;;;5.30;99.90;;;;;;2084471;28;20223;-66
2023/04/25 01:43:02;;;;;;;7.10;3.95;;;5.10;99.90;;;;;;2082558;28;20895;-65
2023/04/25 01:44:03;;;;;;;10.07;3.92;;;5.10;99.90;;;;;;2070923;28;20193;-66
2023/04/25 01:45:06;;;;;;;5.93;4.05;;;5.20;99.90;;;;;;2067918;28;20181;-66
2023/04/25 01:46:07;;;;;;;6.85;4.40;;;5.20;99.90;;;;;;2065193;28;20205;-66
2023/04/25 01:47:08;;;;;;;9.47;4.00;;;5.30;99.90;;;;;;2067329;28;20787;-66
2023/04/25 01:48:12;;;;;;;7.82;4.05;;;5.30;99.90;;;;;;2083962;28;20181;-66
2023/04/25 01:49:12;;;;;;;7.75;3.80;;;5.30;99.90;;;;;;2093531;28;20207;-66
2023/04/25 01:50:15;;;;;;;6.77;3.97;;;5.30;99.90;;;;;;2091049;28;20191;-65
2023/04/25 01:51:18;;;;;;;6.30;4.00;;;5.30;99.90;;;;;;2091847;28;20173;-65
2023/04/25 01:52:18;;;;;;;11.57;4.75;;;5.30;99.90;;;;;;2083702;28;20219;-65
2023/04/25 01:53:20;;;;;;;5.17;3.77;;;5.30;99.90;;;;;;2075938;28;20325;-66
2023/04/25 01:54:22;;;;;;;6.68;4.45;;;5.30;99.90;;;;;;2075315;28;21021;-65
2023/04/25 01:55:24;;;;;;;7.65;3.78;;;5.30;99.90;;;;;;2076341;28;20645;-70
2023/04/25 01:56:30;;;;;;;5.07;3.88;;;5.30;99.90;;;;;;2083701;28;20740;-65
2023/04/25 01:57:30;;;;;;;6.57;4.10;;;5.30;99.90;;;;;;2075421;28;20229;-66
2023/04/25 01:58:31;;;;;;;7.20;3.97;;;5.30;99.90;;;;;;2081717;28;20248;-65
2023/04/25 01:59:32;;;;;;;7.07;4.10;;;5.30;99.90;;;;;;2092632;28;20228;-65
2023/04/25 02:00:33;;;;;;;7.30;4.47;;;5.40;99.90;;;;;;2083414;28;20224;-65
2023/04/25 02:01:34;;;;;;;9.50;3.73;;;5.40;99.90;;;;;;2084553;28;20224;-66
2023/04/25 02:02:35;;;;;;;5.10;3.53;;;5.40;99.90;;;;;;2092756;28;20254;-65
2023/04/25 02:03:37;;;;;;;5.38;3.53;;;5.30;99.90;;;;;;2092308;28;20799;-66
2023/04/25 02:04:37;;;;;;;6.38;3.72;;;5.30;99.90;;;;;;2092736;28;20317;-66
2023/04/25 02:05:39;;;;;;;7.37;3.93;;;5.30;99.90;;;;;;2084944;28;20216;-66
2023/04/25 02:06:39;;;;;;;6.43;4.10;;;5.40;99.90;;;;;;2075923;28;20220;-67
2023/04/25 02:07:40;;;;;;;5.77;3.93;;;5.40;99.90;;;;;;2082255;28;20219;-65
2023/04/25 02:08:41;;;;;;;7.57;4.30;;;5.30;99.90;;;;;;2092290;28;20690;-65
2023/04/25 02:09:42;;;;;;;5.70;3.45;;;5.30;99.90;;;;;;2092208;28;20234;-65
2023/04/25 02:10:43;;;;;;;7.43;4.07;;;5.30;99.90;;;;;;2083675;28;20220;-66
2023/04/25 02:11:44;;;;;;;8.20;3.67;;;5.20;99.90;;;;;;2075199;28;20235;-66
2023/04/25 02:12:45;;;;;;;7.53;3.60;;;5.10;99.90;;;;;;2075172;28;20675;-66
2023/04/25 02:13:45;;;;;;;11.33;3.83;;;5.20;99.90;;;;;;2082808;28;20224;-66
2023/04/25 02:14:46;;;;;;;8.77;4.30;;;5.20;99.90;;;;;;2083662;28;20268;-65
2023/04/25 02:15:47;;;;;;;10.20;4.70;;;5.20;99.90;;;;;;2083656;28;20217;-66
2023/04/25 02:16:47;;;;;;;8.57;4.10;;;5.20;99.90;;;;;;2092696;28;20305;-65
2023/04/25 02:17:48;;;;;;;8.43;4.93;;;5.10;99.90;;;;;;2083874;28;20228;-66
2023/04/25 02:18:52;;;;;;;7.93;4.27;;;5.10;99.90;;;;;;2083809;28;20231;-65
2023/04/25 02:19:54;;;;;;;6.38;3.67;;;5.00;99.90;;;;;;2092839;28;20260;-65
2023/04/25 02:20:55;;;;;;;9.35;4.68;;;5.00;99.90;;;;;;2091428;28;20237;-66
2023/04/25 02:21:57;;;;;;;9.17;3.83;;;4.90;99.90;;;;;;2092217;28;20334;-66
2023/04/25 02:22:58;;;;;;;8.90;4.60;;;4.90;99.90;;;;;;2092248;28;20230;-65
2023/04/25 02:23:59;;;;;;;13.13;5.37;;;4.80;99.90;;;;;;2092627;28;20222;-66
2023/04/25 02:25:00;;;;;;;8.43;4.15;;;4.80;99.90;;;;;;2092817;28;20230;-66
2023/04/25 02:26:02;;;;;;;10.93;4.80;;;4.80;99.90;;;;;;2082670;28;20342;-66
2023/04/25 02:27:03;;;;;;;7.20;4.30;;;4.70;99.90;;;;;;2075214;28;20199;-69
2023/04/25 02:28:03;;;;;;;7.80;4.50;;;4.70;99.90;;;;;;2079346;28;20666;-66
2023/04/25 02:29:04;;;;;;;9.17;4.20;;;4.60;99.90;;;;;;2083349;28;20211;-66
2023/04/25 02:30:07;;;;;;;10.67;4.93;;;4.50;99.90;;;;;;2075038;28;20208;-65
2023/04/25 02:31:08;;;;;;;8.98;5.03;;;4.50;99.90;;;;;;2083941;28;20226;-66
2023/04/25 02:32:08;;;;;;;9.83;4.83;;;4.50;99.90;;;;;;2092368;28;20580;-66
2023/04/25 02:33:10;;;;;;;9.50;4.70;;;4.50;99.90;;;;;;2066867;28;20567;-66
2023/04/25 02:34:11;;;;;;;5.47;4.28;;;4.40;99.90;;;;;;2067516;28;20189;-66
2023/04/25 02:35:12;;;;;;;7.40;4.00;;;4.30;99.90;;;;;;2092825;28;20236;-65
2023/04/25 02:36:13;;;;;;;9.73;4.70;;;4.30;99.90;;;;;;2083733;28;20214;-66
2023/04/25 02:37:14;;;;;;;8.40;4.63;;;4.40;99.90;;;;;;2081874;28;20192;-65
2023/04/25 02:38:16;;;;;;;11.07;5.03;;;4.30;99.90;;;;;;2091685;28;20179;-66
2023/04/25 02:39:17;;;;;;;9.15;4.07;;;4.30;99.90;;;;;;2091786;28;20209;-66
2023/04/25 02:40:19;;;;;;;9.82;4.68;;;4.30;99.90;;;;;;2075488;28;20199;-65
2023/04/25 02:41:20;;;;;;;8.00;4.55;;;4.20;99.90;;;;;;2083648;28;20198;-66
2023/04/25 02:42:22;;;;;;;6.93;4.03;;;4.20;99.90;;;;;;2083634;28;20311;-65
2023/04/25 02:43:24;;;;;;;6.40;4.40;;;4.20;99.90;;;;;;2076035;28;20234;-65
2023/04/25 02:44:25;;;;;;;6.93;4.68;;;4.20;99.90;;;;;;2075087;28;20718;-66
2023/04/25 02:45:26;;;;;;;5.87;4.50;;;4.20;99.90;;;;;;2075426;28;20225;-65
2023/04/25 02:46:27;;;;;;;7.18;4.53;;;4.20;99.90;;;;;;2091846;28;20256;-67
2023/04/25 02:47:29;;;;;;;6.13;4.00;;;4.20;99.90;;;;;;2092412;28;20694;-65
2023/04/25 02:48:30;;;;;;;12.40;5.38;;;4.10;99.90;;;;;;2087237;28;20231;-66
2023/04/25 02:49:30;;;;;;;8.70;4.63;;;4.20;99.90;;;;;;2090790;28;20587;-66
2023/04/25 02:50:31;;;;;;;7.60;4.10;;;4.20;99.90;;;;;;2083775;28;20303;-66
2023/04/25 02:51:32;;;;;;;7.13;4.70;;;4.20;99.90;;;;;;2073053;28;20691;-66
2023/04/25 02:52:33;;;;;;;6.60;4.70;;;4.20;99.90;;;;;;2075649;28;20234;-66
2023/04/25 02:53:34;;;;;;;8.52;4.60;;;4.10;99.90;;;;;;2082480;28;20251;-66
2023/04/25 02:54:35;;;;;;;8.87;5.00;;;4.20;99.90;;;;;;2071026;28;20319;-66
2023/04/25 02:55:36;;;;;;;7.43;4.80;;;4.10;99.90;;;;;;2079335;28;20324;-65
2023/04/25 02:56:37;;;;;;;6.77;4.73;;;4.10;99.90;;;;;;2079394;28;20292;-66
2023/04/25 02:57:37;;;;;;;8.87;5.13;;;4.10;99.90;;;;;;2079068;28;20838;-69
2023/04/25 02:58:40;;;;;;;7.93;4.55;;;4.10;99.90;;;;;;2083564;28;20337;-66
2023/04/25 02:59:41;;;;;;;7.68;4.65;;;4.00;99.90;;;;;;2083212;28;20329;-68
2023/04/25 03:00:41;;;;;;;8.82;4.63;;;4.10;99.90;;;;;;2082125;28;20239;-66
2023/04/25 03:01:45;;;;;;;8.03;4.73;;;4.10;99.90;;;;;;2091598;28;20245;-66
2023/04/25 03:02:45;;;;;;;9.63;4.72;;;4.10;99.90;;;;;;2092401;28;20234;-65
2023/04/25 03:03:48;;;;;;;12.40;5.33;;;4.10;99.90;;;;;;2091807;28;20602;-66
2023/04/25 03:04:48;;;;;;;8.10;4.90;;;4.10;99.90;;;;;;2091772;28;20729;-65
2023/04/25 03:05:51;;;;;;;9.47;4.70;;;4.20;99.90;;;;;;2080844;28;20225;-66
2023/04/25 03:06:54;;;;;;;8.52;4.65;;;4.20;99.90;;;;;;2091856;28;20226;-66
2023/04/25 03:07:54;;;;;;;8.15;5.00;;;4.20;99.90;;;;;;2078807;28;20243;-66
2023/04/25 03:08:57;;;;;;;11.07;3.93;;;4.20;99.90;;;;;;2081121;28;20688;-66
2023/04/25 03:10:00;;;;;;;8.50;4.78;;;4.20;99.90;;;;;;2089903;28;20299;-65
2023/04/25 03:11:00;;;;;;;7.82;4.88;;;4.20;99.90;;;;;;2092196;28;20230;-65
2023/04/25 03:12:01;;;;;;;7.87;4.60;;;4.20;99.90;;;;;;2081765;28;20230;-67
2023/04/25 03:13:02;;;;;;;8.80;5.20;;;4.20;99.90;;;;;;2083691;28;20207;-66
2023/04/25 03:14:03;;;;;;;7.47;4.30;;;4.20;99.90;;;;;;2091360;28;20190;-66
2023/04/25 03:15:04;;;;;;;5.83;4.27;;;4.10;99.90;;;;;;2082615;28;20232;-66
2023/04/25 03:16:05;;;;;;;10.23;5.60;;;4.10;99.90;;;;;;2082242;28;20260;-65
2023/04/25 03:17:06;;;;;;;8.48;5.20;;;4.20;99.90;;;;;;2073983;28;20654;-65
2023/04/25 03:18:07;;;;;;;10.13;4.90;;;4.20;99.90;;;;;;2075349;28;20181;-66
2023/04/25 03:19:07;;;;;;;7.80;4.63;;;4.20;99.90;;;;;;2074990;28;20716;-66
2023/04/25 03:20:10;;;;;;;7.80;4.67;;;4.30;99.90;;;;;;2083016;28;20228;-65
2023/04/25 03:21:10;;;;;;;9.60;5.30;;;4.30;99.90;;;;;;2066800;28;20691;-65
2023/04/25 03:22:11;;;;;;;9.17;5.27;;;4.30;99.90;;;;;;2075042;28;20216;-65
2023/04/25 03:23:12;;;;;;;9.13;4.93;;;4.40;99.90;;;;;;2083090;28;20197;-66
2023/04/25 03:24:12;;;;;;;11.87;6.03;;;4.40;99.90;;;;;;2079356;28;20291;-65
2023/04/25 03:25:13;;;;;;;7.97;5.17;;;4.40;99.90;;;;;;2074351;28;20263;-66
2023/04/25 03:26:14;;;;;;;8.23;5.53;;;4.40;99.90;;;;;;2074879;28;20192;-66
2023/04/25 03:27:17;;;;;;;10.02;5.03;;;4.40;99.90;;;;;;2091182;28;20241;-66
2023/04/25 03:28:19;;;;;;;6.70;4.88;;;4.40;99.90;;;;;;2092217;28;20206;-65
2023/04/25 03:29:24;;;;;;;11.05;4.70;;;4.40;99.90;;;;;;2082740;28;20240;-65
2023/04/25 03:30:25;;;;;;;9.70;4.55;;;4.50;99.90;;;;;;2081990;28;20725;-65
2023/04/25 03:31:26;;;;;;;8.73;4.43;;;4.60;99.90;;;;;;2091791;28;20241;-66
2023/04/25 03:32:26;;;;;;;9.67;4.53;;;4.60;99.90;;;;;;2091763;28;20229;-66
2023/04/25 03:33:28;;;;;;;6.17;3.90;;;4.60;99.90;;;;;;2074976;28;20233;-66
2023/04/25 03:34:28;;;;;;;8.95;4.93;;;4.60;99.90;;;;;;2070991;28;20229;-66
2023/04/25 03:35:30;;;;;;;8.60;5.40;;;4.60;99.90;;;;;;2086883;28;20714;-66
2023/04/25 03:36:32;;;;;;;7.30;4.20;;;4.70;99.90;;;;;;2091929;28;20231;-65
2023/04/25 03:37:34;;;;;;;7.88;3.40;;;4.70;99.90;;;;;;2082654;28;20227;-66
2023/04/25 03:38:35;;;;;;;6.80;4.38;;;4.70;99.90;;;;;;2083052;28;20274;-65
2023/04/25 03:39:37;;;;;;;6.23;4.00;;;4.80;99.90;;;;;;2082772;28;20254;-66
2023/04/25 03:40:38;;;;;;;7.72;4.00;;;4.80;99.90;;;;;;2067379;28;20470;-66
2023/04/25 03:41:38;;;;;;;7.00;4.20;;;4.80;99.90;;;;;;2076008;28;20312;-67
2023/04/25 03:42:39;;;;;;;7.10;4.90;;;4.80;99.90;;;;;;2088094;28;20283;-66
2023/04/25 03:43:40;;;;;;;7.60;4.33;;;4.80;99.90;;;;;;2091661;28;20238;-66
2023/04/25 03:44:41;;;;;;;5.70;4.00;;;4.90;99.90;;;;;;2091148;28;20234;-65
2023/04/25 03:45:43;;;;;;;10.10;4.80;;;4.80;99.90;;;;;;2083502;28;20301;-66
2023/04/25 03:46:43;;;;;;;5.72;3.80;;;4.80;99.90;;;;;;2083603;28;20676;-66
2023/04/25 03:47:45;;;;;;;5.23;3.77;;;4.80;99.90;;;;;;2091760;28;20247;-66
2023/04/25 03:48:48;;;;;;;5.82;3.80;;;4.90;99.90;;;;;;2083210;28;20227;-65
2023/04/25 03:49:51;;;;;;;6.78;4.20;;;4.90;99.90;;;;;;2083294;28;20227;-66
2023/04/25 03:50:53;;;;;;;6.40;3.67;;;4.90;99.90;;;;;;2091657;28;20223;-66
2023/04/25 03:51:54;;;;;;;7.22;3.70;;;4.90;99.90;;;;;;2091587;28;20239;-66
2023/04/25 03:52:54;;;;;;;6.73;4.07;;;4.90;99.90;;;;;;2091825;28;20946;-66
2023/04/25 03:53:55;;;;;;;5.77;3.63;;;5.00;99.90;;;;;;2092535;28;20306;-66
2023/04/25 03:54:56;;;;;;;5.90;4.13;;;4.90;99.90;;;;;;2082645;28;20229;-65
2023/04/25 03:55:56;;;;;;;6.37;3.87;;;4.90;99.90;;;;;;2082465;28;20228;-66
2023/04/25 03:56:57;;;;;;;6.20;4.03;;;4.90;99.90;;;;;;2092336;28;20234;-66
2023/04/25 03:57:58;;;;;;;6.53;4.10;;;4.90;99.90;;;;;;2091984;28;20218;-66
2023/04/25 03:58:59;;;;;;;6.13;4.13;;;4.80;99.90;;;;;;2075771;28;20655;-65
2023/04/25 04:00:00;;;;;;;6.23;4.30;;;4.90;99.90;;;;;;2083362;28;20223;-66
2023/04/25 04:01:07;;;;;;;8.27;4.27;;;4.90;99.90;;;;;;2083470;28;20230;-65
2023/04/25 04:02:07;;;;;;;6.60;3.70;;;4.90;99.90;;;;;;2082849;28;20293;-66
2023/04/25 04:03:10;;;;;;;11.27;4.53;;;4.90;99.90;;;;;;2091803;28;20303;-66
2023/04/25 04:04:12;;;;;;;8.63;4.63;;;4.90;99.90;;;;;;2083066;28;20189;-65
2023/04/25 04:05:13;;;;;;;7.15;4.60;;;4.90;99.90;;;;;;2081943;28;20714;-67
2023/04/25 04:06:14;;;;;;;5.97;3.78;;;4.90;99.90;;;;;;2091677;28;20196;-65
2023/04/25 04:07:15;;;;;;;6.82;4.22;;;4.90;99.90;;;;;;2090724;28;20302;-65
2023/04/25 04:08:16;;;;;;;5.13;3.63;;;4.80;99.90;;;;;;2089276;28;20547;-65
2023/04/25 04:09:16;;;;;;;6.17;3.60;;;4.90;99.90;;;;;;2091994;28;20551;-65
2023/04/25 04:10:17;;;;;;;5.50;3.77;;;4.90;99.90;;;;;;2091359;28;20191;-65
2023/04/25 04:11:18;;;;;;;7.43;4.03;;;4.90;99.90;;;;;;2091463;28;20205;-65
2023/04/25 04:12:18;;;;;;;8.57;4.10;;;5.00;99.90;;;;;;2083571;28;20270;-66
2023/04/25 04:13:19;;;;;;;7.20;4.23;;;5.00;99.90;;;;;;2091353;28;20398;-65
2023/04/25 04:14:20;;;;;;;12.13;5.20;;;5.00;99.90;;;;;;2081466;28;20680;-66
2023/04/25 04:15:22;;;;;;;9.80;5.60;;;5.00;99.90;;;;;;2074295;28;20243;-65
2023/04/25 04:16:23;;;;;;;5.88;4.70;;;4.90;99.90;;;;;;2074730;28;20271;-65
2023/04/25 04:17:25;;;;;;;10.10;4.43;;;4.90;99.90;;;;;;2074322;28;20224;-65
2023/04/25 04:18:26;;;;;;;9.10;5.10;;;4.90;99.90;;;;;;2066650;28;20225;-65
2023/04/25 04:19:26;;;;;;;6.47;4.50;;;5.00;99.90;;;;;;2075218;28;20350;-66
2023/04/25 04:20:28;;;;;;;9.40;5.57;;;5.00;99.90;;;;;;2082868;28;20221;-65
2023/04/25 04:21:28;;;;;;;8.10;4.60;;;5.00;99.90;;;;;;2083210;28;20237;-67
2023/04/25 04:22:30;;;;;;;7.43;4.83;;;5.00;99.90;;;;;;2090914;28;20219;-65
2023/04/25 04:23:31;;;;;;;7.22;4.65;;;5.00;99.90;;;;;;2091828;28;20231;-66
2023/04/25 04:24:32;;;;;;;7.30;5.07;;;5.10;99.90;;;;;;2083254;28;20603;-65
2023/04/25 04:25:34;;;;;;;11.07;5.47;;;5.10;99.90;;;;;;2074893;28;20212;-65
2023/04/25 04:26:34;;;;;;;8.77;4.78;;;5.10;99.90;;;;;;2074938;28;20232;-65
2023/04/25 04:27:35;;;;;;;8.13;4.97;;;5.00;99.90;;;;;;2082528;28;20248;-65
2023/04/25 04:28:37;;;;;;;10.37;6.73;;;5.00;99.90;;;;;;2091325;28;20323;-65
2023/04/25 04:29:38;;;;;;;13.43;6.93;;;4.90;99.90;;;;;;2091623;28;20228;-69
2023/04/25 04:30:40;;;;;;;19.02;8.18;;;4.70;99.90;;;;;;2091350;28;20218;-65
2023/04/25 04:31:41;;;;;;;14.75;7.35;;;4.60;99.90;;;;;;2082717;28;20235;-65
2023/04/25 04:32:43;;;;;;;15.87;7.93;;;4.50;99.90;;;;;;2082826;28;20602;-65
2023/04/25 04:33:44;;;;;;;14.77;7.57;;;4.50;99.90;;;;;;2091575;28;20273;-65
2023/04/25 04:34:47;;;;;;;13.57;7.60;;;4.40;99.90;;;;;;2083462;28;20322;-65
2023/04/25 04:35:48;;;;;;;16.83;7.78;;;4.40;99.90;;;;;;2075101;28;20228;-65
2023/04/25 04:36:49;;;;;;;14.88;8.23;;;4.40;99.90;;;;;;2075136;28;20225;-65
2023/04/25 04:37:50;;;;;;;12.13;6.80;;;4.40;99.90;;;;;;2082854;28;20305;-67
2023/04/25 04:38:52;;;;;;;15.57;7.00;;;4.40;99.90;;;;;;2092065;28;20267;-65
2023/04/25 04:39:53;;;;;;;14.30;6.60;;;4.50;99.90;;;;;;2091980;28;20224;-65
2023/04/25 04:40:53;;;;;;;14.60;7.33;;;4.40;99.90;;;;;;2079225;28;20254;-65
2023/04/25 04:41:54;;;;;;;12.30;7.43;;;4.50;99.90;;;;;;2084286;28;20230;-65
2023/04/25 04:42:56;;;;;;;18.03;8.47;;;4.50;99.90;;;;;;2093122;28;20718;-66
2023/04/25 04:43:56;;;;;;;13.10;6.32;;;4.50;99.90;;;;;;2093197;28;20238;-66
2023/04/25 04:44:58;;;;;;;11.70;6.47;;;4.50;99.90;;;;;;2093372;28;20718;-66
2023/04/25 04:46:01;;;;;;;15.20;7.43;;;4.50;99.90;;;;;;2092871;28;20228;-66
2023/04/25 04:47:06;;;;;;;11.90;7.10;;;4.50;99.90;;;;;;2092394;28;20574;-68
2023/04/25 04:48:06;;;;;;;15.40;7.55;;;4.50;99.90;;;;;;2093613;28;20188;-67
2023/04/25 04:49:09;;;;;;;14.30;6.93;;;4.50;99.90;;;;;;2092802;28;20712;-65
2023/04/25 04:50:10;;;;;;;14.20;6.70;;;4.40;99.90;;;;;;2092926;28;20187;-66
2023/04/25 04:51:11;;;;;;;19.40;8.23;;;4.30;99.90;;;;;;2076531;28;20211;-66
2023/04/25 04:52:12;;;;;;;14.33;7.20;;;4.30;99.90;;;;;;2084581;28;20639;-66
2023/04/25 04:53:13;;;;;;;15.37;7.70;;;4.30;99.90;;;;;;2084109;28;20290;-66
2023/04/25 04:54:13;;;;;;;15.03;7.57;;;4.30;99.90;;;;;;2083690;28;20579;-66
2023/04/25 04:55:14;;;;;;;16.87;8.00;;;4.40;99.90;;;;;;2092883;28;20459;-66
2023/04/25 04:56:15;;;;;;;12.17;7.10;;;4.30;99.90;;;;;;2092955;28;20182;-66
2023/04/25 04:57:16;;;;;;;14.93;8.30;;;4.30;99.90;;;;;;2092992;28;20233;-66
2023/04/25 04:58:17;;;;;;;13.80;7.10;;;4.30;99.90;;;;;;2092942;28;20266;-65
2023/04/25 04:59:17;;;;;;;12.90;6.57;;;4.30;99.90;;;;;;2089013;28;20203;-65
2023/04/25 05:00:18;;;;;;;16.10;8.07;;;4.30;99.90;;;;;;2093146;28;20188;-67
2023/04/25 05:01:19;;;;;;;12.57;6.40;;;4.30;99.90;;;;;;2093741;28;20203;-66
2023/04/25 05:02:20;;;;;;;17.57;7.83;;;4.30;99.90;;;;;;2093060;28;20195;-66
2023/04/25 05:03:22;;;;;;;15.67;8.10;;;4.30;99.90;;;;;;2093298;28;20230;-65
2023/04/25 05:04:22;;;;;;;11.02;7.40;;;4.30;99.90;;;;;;2093199;28;20254;-66
2023/04/25 05:05:24;;;;;;;15.87;7.83;;;4.30;99.90;;;;;;2092994;28;20235;-66
2023/04/25 05:06:25;;;;;;;14.68;8.15;;;4.20;99.90;;;;;;2080852;28;20232;-66
2023/04/25 05:07:26;;;;;;;10.73;6.22;;;4.20;99.90;;;;;;2074951;28;20228;-66
2023/04/25 05:08:27;;;;;;;9.70;6.00;;;4.20;99.90;;;;;;2086099;28;20673;-66
2023/04/25 05:09:29;;;;;;;21.05;8.65;;;4.30;99.90;;;;;;2092298;28;20232;-66
2023/04/25 05:10:30;;;;;;;19.65;9.75;;;4.20;99.90;;;;;;2090951;28;20727;-66
2023/04/25 05:11:31;;;;;;;20.00;10.33;;;4.30;99.90;;;;;;2089076;28;20234;-65
2023/04/25 05:12:33;;;;;;;17.05;7.57;;;4.30;99.90;;;;;;2089161;28;20228;-65
2023/04/25 05:13:34;;;;;;;12.85;7.88;;;4.30;99.90;;;;;;2080342;28;20240;-66
2023/04/25 05:14:35;;;;;;;15.85;8.20;;;4.40;99.90;;;;;;2080643;28;20231;-66
2023/04/25 05:15:36;;;;;;;16.13;8.77;;;4.40;99.90;;;;;;2088851;28;20647;-65
2023/04/25 05:16:37;;;;;;;15.43;7.82;;;4.50;99.90;;;;;;2089144;28;20330;-65
2023/04/25 05:17:39;;;;;;;14.70;7.30;;;4.50;99.90;;;;;;2090709;28;20232;-65
2023/04/25 05:18:40;;;;;;;11.95;6.65;;;4.60;99.90;;;;;;2093111;28;20335;-65
2023/04/25 05:19:41;;;;;;;13.37;6.93;;;4.60;99.90;;;;;;2092353;28;20628;-66
2023/04/25 05:20:42;;;;;;;16.20;7.37;;;4.60;99.90;;;;;;2092416;28;20241;-66
2023/04/25 05:21:43;;;;;;;18.23;7.97;;;4.70;99.90;;;;;;2092725;28;20589;-65
2023/04/25 05:22:43;;;;;;;14.90;7.53;;;4.70;99.90;;;;;;2083918;28;20226;-65
2023/04/25 05:23:44;;;;;;;14.90;8.33;;;4.70;99.90;;;;;;2075793;28;20593;-65